Terminal Aerodrome Forecast
Issued by NWS

Home | Current Version | Previous Version | Graphics & Text | Print | Product List | Glossary On
Versions: 1 2 3 4 5 6 7 8 9 10 11 12 13 14 15 16 17 18 19 20 21 22 23 24
000
FTUS43 KBIS 240500
TAFMOT
TAF
KMOT 240533Z 2406/2506 33016G24KT P6SM BKN012 OVC020
      TEMPO 2406/2409 SCT012
     FM240900 31013KT P6SM SCT015 BKN040
     FM241500 30013KT P6SM SCT150
     FM242300 28010KT P6SM BKN035 OVC070
     FM250200 27010KT P6SM -SN BKN015 OVC025=

USA.gov is the U.S. government's official web portal to all federal, state and local government web resources and services.